Time;durP1;ratioP1;P1;durP2;ratioP2;P2;SDS_P1;SDS_P2;PMS_P1;PMS_P2;Temp;Humidity;BMP_temperature;BMP_pressure;BME280_temperature;BME280_humidity;BME280_pressure;Samples;Min_cycle;Max_cycle;Signal;HPM_P1;HPM_P2
2023/03/27 00:01:13;;;;;;;10.63;5.88;;;;;;;6.44;94.26;97667.28;5071061;28;20128;-38
2023/03/27 00:03:40;;;;;;;8.57;5.00;;;;;;;6.28;94.69;97634.47;5072002;28;20040;-38
2023/03/27 00:06:10;;;;;;;8.65;5.43;;;;;;;6.49;94.66;97655.78;5083270;28;20043;-37
2023/03/27 00:08:37;;;;;;;7.15;4.90;;;;;;;6.58;94.58;97664.81;5087819;28;20032;-37
2023/03/27 00:11:04;;;;;;;8.23;4.90;;;;;;;6.27;93.70;97616.50;5087647;28;20043;-36
2023/03/27 00:13:30;;;;;;;7.25;4.45;;;;;;;6.31;94.02;97646.38;5071087;28;20059;-37
2023/03/27 00:15:57;;;;;;;9.73;5.75;;;;;;;6.36;94.04;97662.47;5083217;28;20036;-37
2023/03/27 00:18:24;;;;;;;8.40;5.35;;;;;;;6.32;94.39;97661.81;5074318;28;20051;-37
2023/03/27 00:20:50;;;;;;;10.40;5.57;;;;;;;6.27;94.78;97657.78;5086611;28;20068;-38
2023/03/27 00:23:18;;;;;;;10.50;6.10;;;;;;;6.18;94.47;97659.03;5087916;28;20090;-38
2023/03/27 00:25:48;;;;;;;8.85;5.50;;;;;;;6.05;94.38;97664.88;5067079;28;20122;-38
2023/03/27 00:28:15;;;;;;;8.82;5.40;;;;;;;5.94;94.78;97673.97;5078501;28;20040;-36
2023/03/27 00:30:42;;;;;;;11.02;6.50;;;;;;;5.66;95.44;97644.38;5087119;28;20477;-38
2023/03/27 00:33:10;;;;;;;11.13;5.25;;;;;;;5.82;96.29;97678.84;5079769;28;20071;-38
2023/03/27 00:35:36;;;;;;;10.82;5.95;;;;;;;5.82;95.93;97676.25;5074815;28;20038;-37
2023/03/27 00:38:02;;;;;;;10.77;5.90;;;;;;;5.73;95.88;97667.22;5053208;28;20036;-37
2023/03/27 00:40:28;;;;;;;10.63;5.68;;;;;;;5.86;96.11;97676.03;5053378;28;20142;-37
2023/03/27 00:42:56;;;;;;;9.88;5.70;;;;;;;5.95;95.82;97685.13;5084142;28;20065;-37
2023/03/27 00:45:27;;;;;;;12.43;6.40;;;;;;;5.99;95.89;97673.75;5050762;28;20158;-37
2023/03/27 00:48:02;;;;;;;7.75;4.95;;;;;;;6.01;94.95;97678.84;5050633;28;20147;-37
2023/03/27 00:50:31;;;;;;;9.77;5.00;;;;;;;6.09;95.62;97682.72;5050477;28;20551;-37
2023/03/27 00:53:03;;;;;;;11.52;5.93;;;;;;;6.15;95.42;97684.16;5073392;28;20035;-36
2023/03/27 00:55:30;;;;;;;10.68;5.85;;;;;;;6.20;95.01;97689.94;5069939;28;20400;-37
2023/03/27 00:58:03;;;;;;;12.90;6.47;;;;;;;6.07;94.54;97657.94;5085477;28;20050;-37
2023/03/27 01:00:30;;;;;;;12.88;6.78;;;;;;;6.09;94.94;97692.19;5084109;28;20074;-37
2023/03/27 01:02:56;;;;;;;12.40;6.95;;;;;;;5.92;95.13;97659.47;5087238;28;20040;-36
2023/03/27 01:05:22;;;;;;;13.70;6.47;;;;;;;5.97;95.60;97691.03;5052957;28;20059;-36
2023/03/27 01:07:49;;;;;;;12.52;7.03;;;;;;;5.97;96.21;97693.63;5070146;28;20043;-37
2023/03/27 01:10:15;;;;;;;13.73;7.43;;;;;;;5.83;96.54;97660.72;5055651;28;20202;-37
2023/03/27 01:13:09;;;;;;;14.57;7.60;;;;;;;6.13;96.29;97689.41;5091953;28;20123;-38
2023/03/27 01:15:36;;;;;;;15.15;7.57;;;;;;;6.21;96.21;97689.03;5069424;28;20040;-37
2023/03/27 01:18:25;;;;;;;14.98;7.85;;;;;;;6.15;96.28;97682.44;5054036;28;20051;-36
2023/03/27 01:21:06;;;;;;;13.95;7.70;;;;;;;6.19;95.96;97677.94;5066911;28;20585;-37
2023/03/27 01:23:54;;;;;;;13.23;7.57;;;;;;;6.23;96.02;97680.28;5074339;28;20048;-36
2023/03/27 01:26:39;;;;;;;12.73;6.72;;;;;;;6.27;95.75;97678.41;5091204;28;20032;-37
2023/03/27 01:29:27;;;;;;;13.60;7.35;;;;;;;6.15;95.75;97664.38;5088263;28;20521;-36
2023/03/27 01:32:18;;;;;;;12.02;7.05;;;;;;;5.92;95.35;97646.59;5061382;28;20055;-36
2023/03/27 01:35:11;;;;;;;12.80;7.07;;;;;;;6.12;96.22;97676.59;5062679;28;20043;-36
2023/03/27 01:37:46;;;;;;;13.02;7.35;;;;;;;6.16;95.43;97668.63;5089882;28;20216;-37
2023/03/27 01:40:23;;;;;;;11.25;6.93;;;;;;;6.19;95.63;97670.19;5072590;28;20093;-36
2023/03/27 01:42:56;;;;;;;11.02;6.25;;;;;;;6.07;95.31;97643.25;5072288;28;20048;-37
2023/03/27 01:45:45;;;;;;;11.27;6.68;;;;;;;6.25;95.57;97670.75;5074099;28;20046;-37
2023/03/27 01:48:44;;;;;;;12.60;7.05;;;;;;;6.27;95.40;97661.19;5084350;28;20085;-36
2023/03/27 01:51:22;;;;;;;9.77;5.75;;;;;;;6.30;94.73;97662.78;5068847;28;20097;-36
2023/03/27 01:53:53;;;;;;;10.20;6.25;;;;;;;6.31;94.50;97660.13;5069772;28;20127;-37
2023/03/27 01:56:31;;;;;;;11.45;6.55;;;;;;;6.11;94.31;97633.66;5056924;28;20093;-38
2023/03/27 01:59:05;;;;;;;10.40;5.40;;;;;;;6.14;94.39;97667.84;5073779;28;20044;-36
2023/03/27 02:01:36;;;;;;;8.07;4.72;;;;;;;6.12;94.60;97679.16;5084231;28;20037;-38
2023/03/27 02:04:03;;;;;;;12.43;7.15;;;;;;;5.95;94.45;97664.50;5053093;28;20032;-37
2023/03/27 02:06:32;;;;;;;12.63;7.32;;;;;;;6.01;95.47;97674.53;5056662;28;20051;-38
2023/03/27 02:09:07;;;;;;;15.27;7.25;;;;;;;6.04;94.90;97676.09;5090332;28;20131;-45
2023/03/27 02:11:39;;;;;;;10.40;6.20;;;;;;;5.94;94.86;97684.28;5068119;28;20145;-37
2023/03/27 02:14:19;;;;;;;8.50;5.47;;;;;;;5.82;95.37;97677.09;5069968;28;20477;-37
2023/03/27 02:16:48;;;;;;;10.38;6.07;;;;;;;5.93;96.15;97682.63;5069550;28;20094;-38
2023/03/27 02:19:55;;;;;;;15.52;7.80;;;;;;;5.92;95.20;97685.25;5086527;28;20048;-36
2023/03/27 02:22:21;;;;;;;15.35;7.68;;;;;;;5.80;95.30;97683.25;5075240;28;20048;-37
2023/03/27 02:24:54;;;;;;;21.38;7.53;;;;;;;5.54;96.27;97687.88;5073646;28;20503;-37
2023/03/27 02:27:44;;;;;;;24.40;9.40;;;;;;;5.38;97.56;97688.66;5072717;28;20031;-37
2023/03/27 02:30:21;;;;;;;29.73;8.98;;;;;;;5.27;99.38;97683.97;5055011;28;20036;-37
2023/03/27 02:32:57;;;;;;;31.70;9.50;;;;;;;5.21;99.68;97691.16;5077145;28;20110;-37
2023/03/27 02:35:35;;;;;;;20.02;8.98;;;;;;;5.21;100.00;97681.69;5069358;28;20068;-37
2023/03/27 02:38:07;;;;;;;23.90;8.85;;;;;;;5.32;100.00;97686.34;5069500;28;20040;-37
2023/03/27 02:41:02;;;;;;;28.02;8.40;;;;;;;5.33;100.00;97685.44;5069138;28;20061;-37
2023/03/27 02:43:54;;;;;;;20.80;8.50;;;;;;;5.32;100.00;97679.47;5084947;28;20040;-36
2023/03/27 02:46:45;;;;;;;17.02;8.55;;;;;;;5.38;100.00;97684.34;5089390;28;20040;-36
2023/03/27 02:49:27;;;;;;;35.78;7.35;;;;;;;5.01;100.00;97625.09;5071645;28;21559;-37
2023/03/27 02:52:00;;;;;;;24.02;8.10;;;;;;;5.13;100.00;97673.44;5084177;28;20097;-37
2023/03/27 02:54:37;;;;;;;16.08;6.90;;;;;;;5.13;100.00;97692.31;5085730;28;20589;-37
2023/03/27 02:57:07;;;;;;;29.42;8.70;;;;;;;5.07;100.00;97692.59;5072709;28;20044;-37
2023/03/27 03:00:04;;;;;;;14.23;7.60;;;;;;;4.91;100.00;97672.75;5084581;28;20091;-36
2023/03/27 03:02:36;;;;;;;53.47;7.93;;;;;;;4.94;100.00;97700.91;5049351;28;20131;-37
2023/03/27 03:05:08;;;;;;;94.78;9.57;;;;;;;4.72;100.00;97682.13;5019526;28;20040;-36
2023/03/27 03:07:39;;;;;;;43.58;6.93;;;;;;;4.62;100.00;97676.56;5071358;28;20040;-36
2023/03/27 03:10:11;;;;;;;99.20;9.52;;;;;;;4.68;100.00;97695.16;5089002;28;20044;-36
2023/03/27 03:12:38;;;;;;;20.50;5.45;;;;;;;4.43;100.00;97671.38;5068764;28;20040;-36
2023/03/27 03:15:06;;;;;;;64.85;6.05;;;;;;;4.46;100.00;97711.53;5085761;28;20046;-35
2023/03/27 03:17:33;;;;;;;115.78;9.20;;;;;;;4.12;100.00;97683.81;5051938;28;20041;-35
2023/03/27 03:19:59;;;;;;;120.47;10.73;;;;;;;4.18;100.00;97707.56;5067981;28;20052;-38
2023/03/27 03:22:26;;;;;;;35.58;6.25;;;;;;;4.03;100.00;97695.28;5101344;28;20049;-38
2023/03/27 03:24:52;;;;;;;47.47;6.35;;;;;;;4.12;100.00;97710.38;5052247;28;20503;-37
2023/03/27 03:27:23;;;;;;;62.75;6.97;;;;;;;4.06;100.00;97717.47;5052448;28;20144;-36
2023/03/27 03:30:03;;;;;;;62.38;6.18;;;;;;;4.03;100.00;97713.28;5077724;28;20045;-38
2023/03/27 03:32:34;;;;;;;19.02;5.28;;;;;;;4.07;100.00;97708.88;5061866;28;20043;-37
2023/03/27 03:35:01;;;;;;;55.25;7.80;;;;;;;4.13;100.00;97709.47;5068683;28;20040;-40
2023/03/27 03:37:29;;;;;;;23.50;6.97;;;;;;;4.24;100.00;97715.00;5102447;27;20036;-38
2023/03/27 03:39:57;;;;;;;98.45;8.23;;;;;;;4.18;100.00;97687.00;5088471;28;20073;-37
2023/03/27 03:42:23;;;;;;;49.92;7.45;;;;;;;4.42;100.00;97715.16;5102280;28;20614;-36
2023/03/27 03:44:51;;;;;;;47.13;5.88;;;;;;;4.40;100.00;97712.63;5069106;28;20041;-37
2023/03/27 03:47:19;;;;;;;24.30;5.68;;;;;;;4.32;100.00;97711.28;5067178;28;20083;-37
2023/03/27 03:49:45;;;;;;;47.40;6.10;;;;;;;4.29;100.00;97712.25;5068185;28;20059;-37
2023/03/27 03:52:11;;;;;;;35.30;5.55;;;;;;;4.21;100.00;97709.16;5071584;28;20600;-37
2023/03/27 03:54:39;;;;;;;24.73;5.10;;;;;;;4.32;100.00;97719.84;5071672;28;20040;-36
2023/03/27 03:57:06;;;;;;;30.80;5.35;;;;;;;4.11;100.00;97695.84;5087213;28;20036;-37
2023/03/27 03:59:33;;;;;;;25.90;5.13;;;;;;;4.11;100.00;97707.84;5088232;28;20040;-37
2023/03/27 04:02:30;;;;;;;45.70;5.25;;;;;;;4.15;100.00;97742.81;5084643;28;20079;-37
2023/03/27 04:05:16;;;;;;;19.80;4.55;;;;;;;4.01;100.00;97737.41;5080485;28;20768;-38
2023/03/27 04:07:44;;;;;;;18.25;4.97;;;;;;;3.79;100.00;97697.09;5073083;28;20603;-37
2023/03/27 04:10:35;;;;;;;16.08;4.65;;;;;;;4.09;100.00;97725.06;5068525;28;20045;-37
2023/03/27 04:13:05;;;;;;;27.08;4.60;;;;;;;4.16;100.00;97723.94;5089542;27;20523;-37
2023/03/27 04:15:39;;;;;;;13.20;4.30;;;;;;;4.24;100.00;97727.00;5068991;28;20044;-38
2023/03/27 04:18:05;;;;;;;12.88;5.43;;;;;;;4.20;100.00;97689.47;5084146;28;20040;-38
2023/03/27 04:20:33;;;;;;;12.23;4.45;;;;;;;4.48;100.00;97726.03;5066954;28;20036;-37
2023/03/27 04:23:03;;;;;;;14.43;5.82;;;;;;;4.53;100.00;97721.53;5065998;28;20097;-36
2023/03/27 04:25:34;;;;;;;11.93;5.03;;;;;;;4.61;100.00;97721.19;5094118;28;20044;-37
2023/03/27 04:28:03;;;;;;;15.68;5.63;;;;;;;4.62;100.00;97697.97;5067145;28;20051;-37
2023/03/27 04:30:37;;;;;;;13.02;5.63;;;;;;;4.84;100.00;97725.38;5020161;28;20040;-38
2023/03/27 04:33:06;;;;;;;11.25;5.57;;;;;;;4.91;100.00;97719.09;5068719;28;20511;-37
2023/03/27 04:35:41;;;;;;;18.92;5.82;;;;;;;5.01;100.00;97707.47;5097034;28;20036;-37
2023/03/27 04:38:15;;;;;;;16.60;6.47;;;;;;;5.00;100.00;97703.22;5086234;28;20039;-37
2023/03/27 04:40:48;;;;;;;17.88;7.45;;;;;;;5.26;100.00;97709.81;5053946;28;20047;-37
2023/03/27 04:43:16;;;;;;;14.95;6.40;;;;;;;5.15;100.00;97681.94;5068819;28;20051;-38
2023/03/27 04:45:47;;;;;;;19.38;7.43;;;;;;;5.36;100.00;97698.19;5085693;28;20047;-37
2023/03/27 04:48:14;;;;;;;16.58;6.88;;;;;;;5.60;100.00;97717.66;5084605;28;20067;-38
2023/03/27 04:50:48;;;;;;;19.80;7.32;;;;;;;5.69;100.00;97722.44;5086711;28;20044;-43
2023/03/27 04:53:22;;;;;;;20.33;7.30;;;;;;;5.78;100.00;97713.41;5101565;28;20463;-39
2023/03/27 04:55:51;;;;;;;19.58;8.38;;;;;;;5.78;99.37;97706.53;5082676;28;20051;-39
2023/03/27 04:58:18;;;;;;;18.73;8.07;;;;;;;5.64;98.78;97682.31;5086650;28;20315;-39
2023/03/27 05:00:49;;;;;;;20.30;9.00;;;;;;;5.87;98.41;97713.84;5088221;28;20040;-38
2023/03/27 05:03:31;;;;;;;22.20;8.85;;;;;;;5.89;98.03;97708.63;5091193;28;20831;-37
2023/03/27 05:06:03;;;;;;;21.75;9.15;;;;;;;5.83;97.22;97708.88;5057945;28;20471;-36
2023/03/27 05:08:29;;;;;;;21.58;8.15;;;;;;;5.82;97.36;97700.31;5051691;28;20044;-37
2023/03/27 05:10:56;;;;;;;23.50;9.18;;;;;;;5.89;97.47;97704.31;5068646;28;20036;-37
2023/03/27 05:13:22;;;;;;;22.33;9.05;;;;;;;5.93;96.57;97717.88;5086478;28;20032;-37
2023/03/27 05:15:48;;;;;;;18.17;8.05;;;;;;;5.78;97.13;97687.63;5057646;28;20656;-38
2023/03/27 05:18:18;;;;;;;;;;;;;;;5.98;96.98;97710.75;5080288;28;20059;-37
2023/03/27 05:20:49;;;;;;;21.48;8.93;;;;;;;5.86;96.39;97693.28;5082671;28;20475;-38
2023/03/27 05:23:16;;;;;;;23.42;9.13;;;;;;;5.82;95.81;97691.72;5049846;28;20093;-39
2023/03/27 05:25:44;;;;;;;30.25;10.38;;;;;;;5.95;96.12;97718.66;5065950;28;20146;-39
2023/03/27 05:28:15;;;;;;;25.75;10.43;;;;;;;5.99;95.67;97725.34;5087475;28;20070;-38
2023/03/27 05:30:45;;;;;;;25.70;10.23;;;;;;;6.06;96.11;97729.31;5068406;28;20474;-38
2023/03/27 05:33:22;;;;;;;28.00;10.40;;;;;;;5.98;95.80;97731.41;5085690;28;20551;-36
2023/03/27 05:35:49;;;;;;;30.75;10.95;;;;;;;5.65;95.88;97673.66;5073717;28;20048;-38
2023/03/27 05:38:16;;;;;;;26.40;10.57;;;;;;;6.08;96.04;97729.22;5084325;28;20040;-37
2023/03/27 05:40:55;;;;;;;24.55;9.80;;;;;;;6.09;96.00;97730.88;5085902;28;20052;-38
2023/03/27 05:43:21;;;;;;;28.17;10.57;;;;;;;6.13;95.64;97735.00;5066035;28;20063;-37
2023/03/27 05:45:48;;;;;;;24.70;9.82;;;;;;;6.17;95.99;97721.06;5044171;28;20040;-37
2023/03/27 05:48:14;;;;;;;34.72;10.82;;;;;;;6.17;95.60;97731.38;5087758;28;20050;-37
2023/03/27 05:50:41;;;;;;;27.65;10.30;;;;;;;6.19;96.39;97730.38;5069031;28;20526;-39
2023/03/27 05:53:16;;;;;;;25.23;9.77;;;;;;;6.25;95.80;97737.00;5065358;28;20475;-37
2023/03/27 05:56:00;;;;;;;29.05;10.50;;;;;;;6.31;96.24;97734.97;5070523;28;20044;-37
2023/03/27 05:58:26;;;;;;;27.85;9.52;;;;;;;6.40;95.85;97738.81;5068608;28;20089;-44
2023/03/27 06:00:55;;;;;;;17.75;7.85;;;;;;;6.37;95.25;97742.41;5086116;28;20035;-38
2023/03/27 06:03:23;;;;;;;18.52;7.60;;;;;;;6.15;94.97;97721.13;5069131;28;20526;-37
2023/03/27 06:06:00;;;;;;;21.45;8.30;;;;;;;5.92;94.99;97709.31;5084798;28;20514;-38
2023/03/27 06:08:30;;;;;;;17.23;6.90;;;;;;;6.03;95.35;97729.44;5055994;28;20044;-37
2023/03/27 06:10:57;;;;;;;17.70;7.68;;;;;;;6.09;95.37;97741.22;5087059;27;20392;-37
2023/03/27 06:13:30;;;;;;;14.90;7.28;;;;;;;6.13;95.20;97743.56;5073728;28;20096;-37
2023/03/27 06:16:02;;;;;;;15.55;7.63;;;;;;;6.23;95.54;97738.78;5071862;28;20538;-37
2023/03/27 06:18:51;;;;;;;17.25;7.93;;;;;;;6.23;95.16;97749.13;5059011;28;20048;-37
2023/03/27 06:21:18;;;;;;;22.80;8.15;;;;;;;6.25;95.07;97752.47;5050348;28;20139;-37
2023/03/27 06:23:45;;;;;;;15.75;7.60;;;;;;;6.03;94.66;97693.31;5036961;28;20040;-38
2023/03/27 06:26:14;;;;;;;14.93;7.07;;;;;;;6.29;94.31;97738.50;5088014;28;20040;-36
2023/03/27 06:28:42;;;;;;;14.23;6.50;;;;;;;6.43;94.45;97753.34;5084449;28;20036;-36
2023/03/27 06:31:10;;;;;;;18.27;8.02;;;;;;;6.44;93.98;97752.44;5050868;28;20068;-37
2023/03/27 06:33:55;;;;;;;15.65;7.45;;;;;;;6.43;94.22;97761.09;5073402;28;20040;-38
2023/03/27 06:36:50;;;;;;;18.98;8.18;;;;;;;6.31;94.56;97760.75;5070552;28;20069;-37
2023/03/27 06:39:16;;;;;;;19.55;8.10;;;;;;;6.17;94.81;97747.69;5085044;28;20044;-37
2023/03/27 06:41:48;;;;;;;12.70;6.05;;;;;;;6.13;95.17;97747.88;5083612;28;20071;-37
2023/03/27 06:44:33;;;;;;;14.90;5.63;;;;;;;6.16;95.21;97760.66;5081014;28;20056;-38
2023/03/27 06:47:08;;;;;;;17.73;7.88;;;;;;;6.02;96.04;97740.66;5069850;28;20071;-37
2023/03/27 06:49:52;;;;;;;17.73;7.97;;;;;;;6.05;95.72;97734.53;5088917;28;20127;-38
2023/03/27 06:52:22;;;;;;;17.52;8.80;;;;;;;6.43;96.47;97761.09;5084709;28;20042;-37
2023/03/27 06:54:48;;;;;;;14.10;7.10;;;;;;;6.56;95.89;97760.41;5052785;28;20033;-38
2023/03/27 06:57:14;;;;;;;12.63;6.03;;;;;;;6.49;94.65;97758.22;5055123;28;20044;-37
2023/03/27 06:59:57;;;;;;;16.17;7.85;;;;;;;6.39;94.89;97747.47;5086385;28;20047;-37
2023/03/27 07:02:37;;;;;;;16.75;7.65;;;;;;;6.50;95.01;97713.41;5075724;28;20055;-36
2023/03/27 07:05:32;;;;;;;13.85;6.38;;;;;;;7.08;93.43;97719.88;5070719;28;20127;-37
2023/03/27 07:07:58;;;;;;;12.10;5.72;;;;;;;7.22;91.79;97732.09;5084315;28;20102;-37
2023/03/27 07:10:27;;;;;;;13.35;6.72;;;;;;;7.34;90.55;97731.44;5054802;28;20024;-37
2023/03/27 07:12:54;;;;;;;11.93;7.18;;;;;;;7.45;89.62;97762.72;5068726;28;20067;-38
2023/03/27 07:15:21;;;;;;;11.75;6.82;;;;;;;7.49;89.72;97758.22;5081427;28;20040;-37
2023/03/27 07:18:01;;;;;;;15.77;7.80;;;;;;;7.46;88.80;97758.41;5086188;28;20069;-36
2023/03/27 07:20:28;;;;;;;15.27;7.35;;;;;;;7.43;88.12;97766.31;5088287;28;20624;-38
2023/03/27 07:22:58;;;;;;;17.13;8.15;;;;;;;7.51;88.64;97761.56;5057319;28;20584;-36
2023/03/27 07:25:57;;;;;;;17.90;8.65;;;;;;;7.53;87.57;97737.31;5069513;28;20105;-37
2023/03/27 07:28:43;;;;;;;13.68;6.32;;;;;;;7.63;86.94;97772.13;5074143;28;20131;-37
2023/03/27 07:31:12;;;;;;;15.45;6.68;;;;;;;7.50;86.45;97757.31;5040515;28;20058;-37
2023/03/27 07:33:39;;;;;;;13.68;7.22;;;;;;;7.59;86.12;97762.00;5072949;28;20054;-37
2023/03/27 07:36:07;;;;;;;15.73;7.82;;;;;;;7.58;85.92;97761.19;5080416;28;20037;-37
2023/03/27 07:38:41;;;;;;;16.70;7.57;;;;;;;7.56;85.60;97762.16;5068307;28;20094;-37
2023/03/27 07:41:30;;;;;;;13.50;7.63;;;;;;;7.57;85.27;97763.84;5040171;28;20076;-37
2023/03/27 07:43:59;;;;;;;18.13;8.20;;;;;;;7.58;85.25;97765.53;5071507;28;20220;-39
2023/03/27 07:46:31;;;;;;;16.02;7.90;;;;;;;7.49;84.96;97742.72;5052124;28;20044;-39
2023/03/27 07:49:01;;;;;;;16.92;7.63;;;;;;;7.72;84.33;97757.00;5068108;28;20041;-46
2023/03/27 07:51:28;;;;;;;18.77;8.73;;;;;;;7.56;84.23;97736.31;5084521;28;20076;-36
2023/03/27 07:53:57;;;;;;;16.50;8.93;;;;;;;7.80;83.68;97754.88;5085796;28;20066;-38
2023/03/27 07:56:39;;;;;;;22.58;8.77;;;;;;;8.04;83.79;97758.69;5105013;28;20135;-37
2023/03/27 07:59:32;;;;;;;14.73;7.32;;;;;;;8.14;82.54;97749.50;5087998;28;20036;-37
2023/03/27 08:02:05;;;;;;;18.17;8.68;;;;;;;8.10;81.76;97753.19;5086536;28;20380;-38
2023/03/27 08:04:36;;;;;;;21.23;8.50;;;;;;;8.15;81.43;97763.28;5078253;28;20511;-37
2023/03/27 08:07:06;;;;;;;17.10;8.43;;;;;;;8.16;81.32;97759.78;5071836;28;20052;-37
2023/03/27 08:09:34;;;;;;;17.17;8.60;;;;;;;8.12;81.00;97725.44;5068779;28;20036;-37
2023/03/27 08:12:00;;;;;;;19.80;8.63;;;;;;;8.04;80.69;97730.22;5050849;28;20051;-36
2023/03/27 08:14:29;;;;;;;18.65;8.55;;;;;;;8.22;80.88;97755.06;5069545;28;20265;-38
2023/03/27 08:16:57;;;;;;;17.88;8.60;;;;;;;8.13;80.58;97754.75;5067140;28;20051;-37
2023/03/27 08:19:26;;;;;;;15.70;8.50;;;;;;;8.30;81.12;97754.69;5035042;28;20075;-37
2023/03/27 08:21:57;;;;;;;15.02;7.55;;;;;;;8.50;80.37;97757.81;5080103;28;20385;-37
2023/03/27 08:24:24;;;;;;;14.60;8.05;;;;;;;8.49;79.85;97766.50;5070965;28;20178;-37
2023/03/27 08:26:53;;;;;;;16.58;8.32;;;;;;;8.48;79.55;97761.41;5067162;28;20061;-37
2023/03/27 08:29:19;;;;;;;14.40;7.43;;;;;;;8.31;79.51;97771.91;5056269;28;20051;-38
2023/03/27 08:31:47;;;;;;;13.48;7.38;;;;;;;8.00;79.69;97772.72;5064143;28;20078;-37
2023/03/27 08:34:14;;;;;;;14.82;8.40;;;;;;;7.92;80.53;97769.72;5085335;28;20515;-38
2023/03/27 08:36:45;;;;;;;13.93;7.03;;;;;;;8.11;80.10;97766.97;5048803;28;20698;-37
2023/03/27 08:39:13;;;;;;;12.00;7.47;;;;;;;8.11;79.42;97747.09;5082770;28;20118;-36
2023/03/27 08:41:53;;;;;;;10.80;6.40;;;;;;;8.31;78.73;97741.69;5069113;28;20067;-35
2023/03/27 08:44:27;;;;;;;12.23;6.32;;;;;;;8.38;78.51;97773.22;5079919;28;20058;-38
2023/03/27 08:47:04;;;;;;;12.70;6.68;;;;;;;8.25;78.87;97767.88;5070485;28;20036;-40
2023/03/27 08:49:39;;;;;;;9.25;5.18;;;;;;;8.14;78.39;97759.84;5086484;28;20164;-39
2023/03/27 08:52:23;;;;;;;11.55;5.13;;;;;;;8.30;77.82;97724.47;5068872;28;20051;-39
2023/03/27 08:54:57;;;;;;;6.90;4.63;;;;;;;9.27;75.80;97764.56;5053186;28;20075;-38
2023/03/27 08:57:33;;;;;;;6.68;3.90;;;;;;;9.87;73.06;97765.19;5070566;28;20412;-38
2023/03/27 09:00:16;;;;;;;8.15;4.03;;;;;;;10.42;71.71;97767.75;5086914;28;20040;-38
2023/03/27 09:02:51;;;;;;;8.38;4.53;;;;;;;10.88;70.19;97776.00;5079040;28;20032;-37
2023/03/27 09:05:22;;;;;;;7.05;4.68;;;;;;;10.71;68.91;97778.03;5085216;28;20035;-39
2023/03/27 09:08:12;;;;;;;6.53;4.07;;;;;;;10.48;69.15;97780.34;5064395;28;20040;-37
2023/03/27 09:10:54;;;;;;;6.25;3.95;;;;;;;10.63;68.40;97776.75;5083835;28;20043;-39
2023/03/27 09:13:44;;;;;;;6.32;4.28;;;;;;;12.06;66.68;97767.03;5076497;28;20070;-38
2023/03/27 09:16:38;;;;;;;6.38;3.63;;;;;;;13.26;60.80;97773.00;5052461;28;20036;-38
2023/03/27 09:19:25;;;;;;;8.93;4.47;;;;;;;12.59;60.67;97786.63;5080382;28;20422;-39
2023/03/27 09:22:15;;;;;;;12.20;5.07;;;;;;;11.69;61.75;97773.09;5085187;28;20096;-38
2023/03/27 09:25:09;;;;;;;11.48;5.22;;;;;;;11.75;61.75;97783.13;5086607;28;20110;-39
2023/03/27 09:28:02;;;;;;;9.05;4.30;;;;;;;12.30;59.82;97780.06;5063007;28;20048;-37
2023/03/27 09:30:41;;;;;;;7.63;4.80;;;;;;;11.42;60.83;97755.84;5082852;28;20040;-40
2023/03/27 09:33:21;;;;;;;8.93;3.90;;;;;;;11.60;60.90;97768.53;5084195;28;20055;-37
2023/03/27 09:35:47;;;;;;;6.65;4.13;;;;;;;14.25;56.79;97793.06;5072285;28;20100;-37
2023/03/27 09:38:36;;;;;;;6.93;3.83;;;;;;;14.69;53.54;97784.31;5078793;28;20052;-39
2023/03/27 09:41:12;;;;;;;6.20;4.25;;;;;;;13.67;55.54;97794.16;5086137;28;20048;-40
2023/03/27 09:43:59;;;;;;;5.70;3.75;;;;;;;13.76;55.81;97792.63;5089163;28;20048;-38
2023/03/27 09:46:26;;;;;;;5.97;3.67;;;;;;;13.29;55.82;97794.50;5042272;28;20052;-39
2023/03/27 09:49:02;;;;;;;7.07;4.07;;;;;;;12.82;56.42;97802.38;5073727;28;20035;-37
2023/03/27 09:51:38;;;;;;;8.82;4.32;;;;;;;12.46;57.84;97803.25;5060073;28;20036;-38
2023/03/27 09:54:08;;;;;;;6.03;3.70;;;;;;;12.00;58.04;97790.06;5068947;28;20044;-38
2023/03/27 09:56:38;;;;;;;4.25;2.78;;;;;;;11.46;59.27;97796.31;5090478;28;20036;-38
2023/03/27 09:59:27;;;;;;;4.43;3.30;;;;;;;11.19;60.37;97807.78;5073619;28;20152;-38
2023/03/27 10:02:22;;;;;;;7.22;3.67;;;;;;;12.69;58.84;97805.88;5068964;28;20044;-38
2023/03/27 10:05:15;;;;;;;4.45;3.28;;;;;;;17.10;49.64;97780.03;5087074;28;20048;-39
2023/03/27 10:07:45;;;;;;;3.83;2.95;;;;;;;17.14;49.26;97802.41;5069967;28;20131;-38
2023/03/27 10:10:31;;;;;;;5.90;3.20;;;;;;;16.05;50.46;97803.34;5071323;28;20090;-37
2023/03/27 10:13:05;;;;;;;4.95;3.20;;;;;;;15.17;50.89;97813.47;5071216;28;20094;-39
2023/03/27 10:15:38;;;;;;;6.25;3.50;;;;;;;15.52;51.33;97814.94;5069737;28;20152;-39
2023/03/27 10:18:20;;;;;;;3.78;3.03;;;;;;;15.48;50.41;97789.97;5087092;28;20051;-39
2023/03/27 10:20:52;;;;;;;4.53;3.05;;;;;;;15.65;50.16;97813.78;5051884;28;20757;-39
2023/03/27 10:23:42;;;;;;;5.13;3.35;;;;;;;16.38;49.35;97810.06;5072197;28;20055;-38
2023/03/27 10:26:20;;;;;;;7.20;3.90;;;;;;;16.67;48.92;97810.16;5074331;28;20048;-38
2023/03/27 10:28:50;;;;;;;8.88;4.20;;;;;;;16.79;48.86;97811.69;5054720;28;20119;-38
2023/03/27 10:31:27;;;;;;;6.75;3.60;;;;;;;16.56;48.83;97812.03;5068665;28;20094;-39
2023/03/27 10:34:05;;;;;;;6.68;3.75;;;;;;;16.06;49.30;97801.56;5074141;28;20039;-39
2023/03/27 10:36:54;;;;;;;6.70;3.70;;;;;;;15.46;49.88;97792.69;5084206;28;20075;-39
2023/03/27 10:39:27;;;;;;;8.00;3.65;;;;;;;15.12;50.68;97823.50;5052559;28;20047;-39
2023/03/27 10:42:14;;;;;;;5.20;3.40;;;;;;;15.24;50.47;97825.06;5085777;28;20078;-37
2023/03/27 10:44:46;;;;;;;13.75;4.05;;;;;;;14.72;50.85;97809.34;5052452;28;20424;-39
2023/03/27 10:47:18;;;;;;;5.80;3.33;;;;;;;14.54;51.51;97813.47;5052727;28;20044;-39
2023/03/27 10:49:51;;;;;;;4.72;3.65;;;;;;;14.43;52.14;97821.34;5073296;28;20089;-39
2023/03/27 10:52:55;;;;;;;5.22;3.80;;;;;;;14.33;52.27;97823.81;5072250;28;20039;-38
2023/03/27 10:55:33;;;;;;;7.15;3.80;;;;;;;14.63;51.78;97820.56;5085834;28;20036;-37
2023/03/27 10:58:04;;;;;;;8.43;3.47;;;;;;;14.96;51.06;97820.47;5072458;28;20071;-39
2023/03/27 11:00:40;;;;;;;5.90;3.25;;;;;;;15.61;50.10;97824.66;5079327;28;20451;-39
2023/03/27 11:03:22;;;;;;;4.82;3.30;;;;;;;15.30;50.37;97826.34;5083467;28;20056;-39
2023/03/27 11:05:56;;;;;;;5.15;3.08;;;;;;;14.53;51.40;97793.50;5072940;28;20037;-38
2023/03/27 11:08:45;;;;;;;6.55;3.05;;;;;;;13.81;52.67;97827.06;5075906;28;20035;-39
2023/03/27 11:11:16;;;;;;;3.97;3.30;;;;;;;13.33;53.74;97816.78;5064171;28;20040;-38
2023/03/27 11:13:47;;;;;;;7.00;3.50;;;;;;;13.23;54.44;97822.81;5049035;28;20040;-38
2023/03/27 11:16:22;;;;;;;5.30;2.90;;;;;;;13.24;54.62;97820.06;5088423;28;20062;-38
2023/03/27 11:19:38;;;;;;;6.53;3.13;;;;;;;13.12;54.87;97816.63;5087821;28;20048;-38
2023/03/27 11:22:29;;;;;;;6.68;2.70;;;;;;;12.56;55.67;97825.13;5087531;28;20054;-40
2023/03/27 11:25:50;;;;;;;3.28;2.50;;;;;;;12.22;56.42;97830.13;5055822;28;20040;-39
2023/03/27 11:28:42;;;;;;;4.10;2.50;;;;;;;11.83;57.27;97827.66;5034296;28;20087;-38
2023/03/27 11:31:27;;;;;;;5.32;2.92;;;;;;;11.64;58.15;97833.28;5071762;28;20040;-38
2023/03/27 11:34:10;;;;;;;2.28;1.83;;;;;;;11.41;58.85;97832.22;5055049;28;20806;-36
2023/03/27 11:36:52;;;;;;;5.20;2.30;;;;;;;11.29;59.73;97803.63;5055875;28;20131;-39
2023/03/27 11:39:45;;;;;;;3.55;2.50;;;;;;;11.42;59.81;97846.91;5043434;28;20718;-39
2023/03/27 11:42:16;;;;;;;4.43;2.72;;;;;;;11.22;61.41;97851.78;5070579;28;20146;-40
2023/03/27 11:44:44;;;;;;;3.95;2.42;;;;;;;11.14;62.03;97854.06;5068433;28;20058;-39
2023/03/27 11:47:42;;;;;;;4.95;2.33;;;;;;;10.97;62.33;97865.56;5067613;28;20466;-38
2023/03/27 11:50:21;;;;;;;4.53;2.28;;;;;;;10.67;62.86;97846.75;5073244;28;20073;-38
2023/03/27 11:53:00;;;;;;;4.50;2.28;;;;;;;10.43;63.88;97857.75;5066776;28;20036;-38
2023/03/27 11:56:10;;;;;;;3.28;2.13;;;;;;;10.23;64.54;97858.16;5069025;28;20051;-39
2023/03/27 11:58:59;;;;;;;3.42;2.35;;;;;;;9.91;66.10;97869.66;5067316;28;20044;-41
2023/03/27 12:01:27;;;;;;;5.20;2.67;;;;;;;9.73;67.31;97874.19;5060668;28;20040;-38
2023/03/27 12:03:57;;;;;;;5.87;3.30;;;;;;;9.84;68.33;97879.56;5054294;28;20508;-48
2023/03/27 12:06:55;;;;;;;8.68;3.28;;;;;;;9.84;69.37;97876.16;5072383;28;20051;-38
2023/03/27 12:09:32;;;;;;;6.05;2.92;;;;;;;10.03;68.95;97879.28;5087836;28;20044;-38